To NAV CANADA Home Page Login to a new session Search on AWWS site Feedback and Comments Disclaimer Vers la page française équivalente Tips FAQ What's new on the site To the Forecasts and Observations / NOTAM section To "File a Flight Plan" website Publications and other links Update of the User's profile FIC Telephone Numbers My Weather Data Folder Route Weather Data Regional Weather Data Local Weather Data To the Forecasts and Observations / NOTAM section
Request Generated 08/05/2015 at 06:22:38 UTC . Weather information available at that time is displayed.

METAR/TAF

MONCTON/GREATER MONCTON INTL/NB    

METAR CYQM 050600Z 22005KT 15SM BKN014 18/16 A2978 RMK SF7 SLP085
DENSITY ALT 700FT=
SPECI CYQM 050529Z 20006KT 15SM BKN014 18/16 A2979 RMK SF6 SLP088
DENSITY ALT 700FT=
METAR CYQM 050500Z 18009KT 15SM FEW025 18/15 A2979 RMK SC2 SLP088
DENSITY ALT 700FT=
METAR CYQM 050400Z 17009KT 15SM SKC 18/14 A2980 RMK SLP092 DENSITY
ALT 700FT=

TAF CYQM 050540Z 0506/0606 19008KT P6SM BKN012 TEMPO 0506/0510 2SM BR
OVC006
FM051000 22008KT P6SM SCT015 TEMPO 0510/0512 5SM BR BKN008
FM051200 24010KT P6SM FEW040 TEMPO 0518/0524 P6SM -SHRA BKN040
PROB30 0518/0522 2SM TSRA BR BKN030CB
FM060200 27008KT P6SM FEW040
RMK NXT FCST BY 051200Z=
Your time UTC time
Weather data provided by Environment Canada and NAV CANADA